createdAt,value
2023-04-26T00:02:05.352Z,99.35
2023-04-26T00:04:34.376Z,100.00
2023-04-26T00:07:01.951Z,100.00
2023-04-26T00:09:29.706Z,100.00
2023-04-26T00:11:57.789Z,100.00
2023-04-26T00:14:25.352Z,99.57
2023-04-26T00:16:52.788Z,99.29
2023-04-26T00:19:21.563Z,98.52
2023-04-26T00:21:48.868Z,97.70
2023-04-26T00:24:16.439Z,97.80
2023-04-26T00:26:44.033Z,97.65
2023-04-26T00:29:11.577Z,97.52
2023-04-26T00:31:40.036Z,97.98
2023-04-26T00:34:07.665Z,98.73
2023-04-26T00:36:35.004Z,98.01
2023-04-26T00:39:03.032Z,98.23
2023-04-26T00:41:30.804Z,98.15
2023-04-26T00:43:58.183Z,98.51
2023-04-26T00:46:26.751Z,99.00
2023-04-26T00:48:55.308Z,99.25
2023-04-26T00:51:22.672Z,98.97
2023-04-26T00:53:49.900Z,98.79
2023-04-26T00:56:17.692Z,99.16
2023-04-26T00:58:46.560Z,98.62
2023-04-26T01:01:14.154Z,98.36
2023-04-26T01:03:43.049Z,98.93
2023-04-26T01:06:11.891Z,99.67
2023-04-26T01:08:39.541Z,99.20
2023-04-26T01:11:07.622Z,98.75
2023-04-26T01:13:38.279Z,98.93
2023-04-26T01:16:08.539Z,100.00
2023-04-26T01:18:36.432Z,100.00
2023-04-26T01:21:05.204Z,100.00
2023-04-26T01:23:32.469Z,100.00
2023-04-26T01:26:00.024Z,100.00
2023-04-26T01:28:27.287Z,100.00
2023-04-26T01:30:55.079Z,100.00
2023-04-26T01:33:23.281Z,100.00
2023-04-26T01:35:52.367Z,100.00
2023-04-26T01:38:20.345Z,100.00
2023-04-26T01:40:48.042Z,100.00
2023-04-26T01:43:15.866Z,100.00
2023-04-26T01:45:49.617Z,99.74
2023-04-26T01:48:29.257Z,100.00
2023-04-26T01:50:56.667Z,100.00
2023-04-26T01:53:23.947Z,100.00
2023-04-26T01:55:51.663Z,100.00
2023-04-26T01:58:19.034Z,96.92
2023-04-26T02:00:46.527Z,97.61
2023-04-26T02:03:14.370Z,97.14
2023-04-26T02:05:41.803Z,100.00
2023-04-26T02:08:09.163Z,100.00
2023-04-26T02:10:37.208Z,100.00
2023-04-26T02:13:04.522Z,100.00
2023-04-26T02:15:31.864Z,100.00
2023-04-26T02:18:00.700Z,99.06
2023-04-26T02:20:28.203Z,98.24
2023-04-26T02:22:55.758Z,97.15
2023-04-26T02:25:23.398Z,97.24
2023-04-26T02:27:51.001Z,96.94
2023-04-26T02:30:18.334Z,98.60
2023-04-26T02:32:45.719Z,99.04
2023-04-26T02:35:13.473Z,100.00
2023-04-26T02:37:42.068Z,100.00
2023-04-26T02:40:11.169Z,99.86
2023-04-26T02:42:47.360Z,100.00
2023-04-26T02:45:15.191Z,100.00
2023-04-26T02:47:43.181Z,100.00
2023-04-26T02:50:11.286Z,100.00
2023-04-26T02:52:38.679Z,99.17
2023-04-26T02:55:06.956Z,97.38
2023-04-26T02:57:34.447Z,96.96
2023-04-26T03:00:02.112Z,95.89
2023-04-26T03:02:30.230Z,96.44
2023-04-26T03:04:57.768Z,98.13
2023-04-26T03:07:26.665Z,99.53
2023-04-26T03:09:54.386Z,100.00
2023-04-26T03:12:21.776Z,100.00
2023-04-26T03:14:49.165Z,100.00
2023-04-26T03:17:17.793Z,100.00
2023-04-26T03:19:45.268Z,100.00
2023-04-26T03:22:16.367Z,100.00
2023-04-26T03:24:45.579Z,100.00
2023-04-26T03:27:13.718Z,100.00
2023-04-26T03:29:43.455Z,100.00
2023-04-26T03:32:12.628Z,100.00
2023-04-26T03:34:40.361Z,99.99
2023-04-26T03:37:08.068Z,100.00
2023-04-26T03:39:36.840Z,100.00
2023-04-26T03:42:04.276Z,100.00
2023-04-26T03:44:31.639Z,100.00
2023-04-26T03:47:01.090Z,100.00
2023-04-26T03:49:28.523Z,100.00
2023-04-26T03:51:56.300Z,98.55
2023-04-26T03:54:24.130Z,99.93
2023-04-26T03:56:52.126Z,99.19
2023-04-26T03:59:20.159Z,99.45
2023-04-26T04:01:48.538Z,100.00
2023-04-26T04:04:16.503Z,100.00
2023-04-26T04:06:44.586Z,98.91
2023-04-26T04:09:12.116Z,99.52
2023-04-26T04:11:39.870Z,100.00
2023-04-26T04:14:07.721Z,100.00
2023-04-26T04:16:35.205Z,100.00
2023-04-26T04:19:04.006Z,100.00
2023-04-26T04:21:32.236Z,100.00
2023-04-26T04:24:00.196Z,100.00
2023-04-26T04:26:30.623Z,100.00
2023-04-26T04:29:00.858Z,100.00
2023-04-26T04:31:28.850Z,100.00
2023-04-26T04:33:56.382Z,100.00
2023-04-26T04:36:24.187Z,100.00
2023-04-26T04:38:54.167Z,100.00
2023-04-26T04:41:22.862Z,100.00
2023-04-26T04:43:51.507Z,100.00
2023-04-26T04:46:20.009Z,100.00
2023-04-26T04:48:52.532Z,100.00
2023-04-26T04:51:21.801Z,100.00
2023-04-26T04:53:49.189Z,100.00
2023-04-26T04:56:18.571Z,100.00
2023-04-26T04:58:46.668Z,100.00
2023-04-26T05:01:15.520Z,100.00
2023-04-26T05:03:43.973Z,100.00
2023-04-26T05:06:12.315Z,100.00
2023-04-26T05:08:39.782Z,100.00
2023-04-26T05:11:08.396Z,100.00
2023-04-26T05:13:36.905Z,100.00
2023-04-26T05:16:05.606Z,100.00
2023-04-26T05:18:33.470Z,100.00
2023-04-26T05:21:01.499Z,100.00
2023-04-26T05:23:30.704Z,99.35
2023-04-26T05:26:03.989Z,99.17
2023-04-26T05:28:34.405Z,98.72
2023-04-26T05:31:02.653Z,98.77
2023-04-26T05:33:31.213Z,98.93
2023-04-26T05:36:00.389Z,98.14
2023-04-26T05:38:28.245Z,98.28
2023-04-26T05:40:56.099Z,97.13
2023-04-26T05:43:24.728Z,94.47
2023-04-26T05:45:56.581Z,94.53
2023-04-26T05:48:25.559Z,94.45
2023-04-26T05:50:53.337Z,95.78
2023-04-26T05:53:21.007Z,95.72
2023-04-26T05:55:49.130Z,95.50
2023-04-26T05:58:16.663Z,96.19
2023-04-26T06:00:47.809Z,95.09
2023-04-26T06:03:19.844Z,95.78
2023-04-26T06:05:48.063Z,96.90
2023-04-26T06:08:17.032Z,97.49
2023-04-26T06:10:44.592Z,93.21
2023-04-26T06:13:12.654Z,92.38
2023-04-26T06:15:40.494Z,94.41
2023-04-26T06:18:08.985Z,91.75
2023-04-26T06:20:36.447Z,92.55
2023-04-26T06:23:06.804Z,91.95
2023-04-26T06:25:34.655Z,91.51
2023-04-26T06:28:02.335Z,91.29
2023-04-26T06:30:30.277Z,91.83
2023-04-26T06:33:00.423Z,92.35
2023-04-26T06:35:28.415Z,94.04
2023-04-26T06:37:56.153Z,93.52
2023-04-26T06:40:23.841Z,93.43
2023-04-26T06:42:51.286Z,92.33
2023-04-26T06:45:19.781Z,87.24
2023-04-26T06:47:47.218Z,85.09
2023-04-26T06:50:15.407Z,84.06
2023-04-26T06:52:43.212Z,80.78
2023-04-26T06:55:11.138Z,80.98
2023-04-26T06:57:39.447Z,79.28
2023-04-26T07:00:13.122Z,77.71
2023-04-26T07:02:40.674Z,78.83
2023-04-26T07:05:09.047Z,79.89
2023-04-26T07:07:36.480Z,79.45
2023-04-26T07:10:04.726Z,80.23
2023-04-26T07:12:32.778Z,78.13
2023-04-26T07:15:01.611Z,80.59
2023-04-26T07:17:29.229Z,83.62
2023-04-26T07:19:57.608Z,81.50
2023-04-26T07:22:26.106Z,78.05
2023-04-26T07:24:53.744Z,82.39
2023-04-26T07:27:21.903Z,78.61
2023-04-26T07:29:49.428Z,76.98
2023-04-26T07:32:16.989Z,78.48
2023-04-26T07:34:45.332Z,79.28
2023-04-26T07:37:12.821Z,77.64
2023-04-26T07:39:41.129Z,79.75
2023-04-26T07:42:09.488Z,77.90
2023-04-26T07:44:37.232Z,71.49
2023-04-26T07:47:04.854Z,66.41
2023-04-26T07:49:32.722Z,67.84
2023-04-26T07:52:02.601Z,68.02
2023-04-26T07:54:30.354Z,62.84
2023-04-26T07:56:58.650Z,63.45
2023-04-26T07:59:26.292Z,67.61
2023-04-26T08:01:53.890Z,64.59
2023-04-26T08:04:32.933Z,63.73
2023-04-26T08:07:02.416Z,64.04
2023-04-26T08:09:31.172Z,64.20
2023-04-26T08:11:58.714Z,65.58
2023-04-26T08:14:26.224Z,65.30
2023-04-26T08:16:54.899Z,66.18
2023-04-26T08:19:22.764Z,65.76
2023-04-26T08:21:50.224Z,68.19
2023-04-26T08:24:18.061Z,64.30
2023-04-26T08:26:46.521Z,66.80
2023-04-26T08:29:15.220Z,65.36
2023-04-26T08:31:43.436Z,64.18
2023-04-26T08:34:11.480Z,65.45
2023-04-26T08:36:42.721Z,65.25
2023-04-26T08:39:12.756Z,65.83
2023-04-26T08:41:43.799Z,64.77
2023-04-26T08:44:12.054Z,65.58
2023-04-26T08:46:48.159Z,66.18
2023-04-26T08:49:28.712Z,67.29
2023-04-26T08:51:58.177Z,66.16
2023-04-26T08:54:26.343Z,66.12
2023-04-26T08:56:56.510Z,65.66
2023-04-26T08:59:24.583Z,65.20
2023-04-26T09:01:53.752Z,65.03
2023-04-26T09:04:21.500Z,64.60
2023-04-26T09:06:50.222Z,62.93
2023-04-26T09:09:20.351Z,64.66
2023-04-26T09:11:59.947Z,60.10
2023-04-26T09:14:28.376Z,58.93
2023-04-26T09:16:56.071Z,61.10
2023-04-26T09:19:42.956Z,59.70
2023-04-26T09:22:12.115Z,61.15
2023-04-26T09:24:51.081Z,57.28
2023-04-26T09:27:20.212Z,56.36
2023-04-26T09:30:09.975Z,58.13
2023-04-26T09:32:46.363Z,56.74
2023-04-26T09:35:29.178Z,57.63
2023-04-26T09:38:11.778Z,59.71
2023-04-26T09:40:50.854Z,56.17
2023-04-26T09:43:20.925Z,56.86
2023-04-26T09:45:53.656Z,57.75
2023-04-26T09:48:30.971Z,56.14
2023-04-26T09:51:18.691Z,60.41
2023-04-26T09:53:48.516Z,56.88
2023-04-26T09:56:19.142Z,58.21
2023-04-26T09:58:46.896Z,55.61
2023-04-26T10:01:19.341Z,54.53
2023-04-26T10:03:47.860Z,57.66
2023-04-26T10:06:16.819Z,58.27
2023-04-26T10:08:45.494Z,59.13
2023-04-26T10:11:14.134Z,57.43
2023-04-26T10:13:45.171Z,57.33
2023-04-26T10:16:15.283Z,55.41
2023-04-26T10:18:44.878Z,53.55
2023-04-26T10:21:31.745Z,55.59
2023-04-26T10:24:00.503Z,53.52
2023-04-26T10:26:54.979Z,54.92
2023-04-26T10:29:23.688Z,53.65
2023-04-26T10:32:00.665Z,53.53
2023-04-26T10:34:31.486Z,52.29
2023-04-26T10:37:20.382Z,53.57
2023-04-26T10:39:49.202Z,53.15
2023-04-26T10:42:25.529Z,55.23
2023-04-26T10:45:18.984Z,53.49
2023-04-26T10:48:11.402Z,53.92
2023-04-26T10:51:13.224Z,54.89
2023-04-26T10:53:47.081Z,57.43
2023-04-26T10:56:26.467Z,56.02
2023-04-26T11:01:52.879Z,60.61
2023-04-26T11:04:20.950Z,62.27
2023-04-26T11:06:53.012Z,63.67
2023-04-26T11:09:40.991Z,65.82
2023-04-26T11:12:16.709Z,65.77
2023-04-26T11:14:46.972Z,64.37
2023-04-26T11:17:15.149Z,62.79
2023-04-26T11:19:42.675Z,61.76
2023-04-26T11:22:11.133Z,62.32
2023-04-26T11:24:41.861Z,63.72
2023-04-26T11:27:10.465Z,63.65
2023-04-26T11:29:38.945Z,61.82
2023-04-26T11:32:11.158Z,63.90
2023-04-26T11:34:54.483Z,63.34
2023-04-26T11:37:23.319Z,63.27
2023-04-26T11:39:51.633Z,64.34
2023-04-26T11:42:26.172Z,61.90
2023-04-26T11:44:56.645Z,63.37
2023-04-26T11:47:26.220Z,65.15
2023-04-26T11:49:57.457Z,59.59
2023-04-26T11:52:25.039Z,62.93
2023-04-26T11:55:04.170Z,59.63
2023-04-26T11:57:35.178Z,61.41
2023-04-26T12:00:14.539Z,61.99
2023-04-26T12:02:49.417Z,63.64
2023-04-26T12:05:35.422Z,58.79
2023-04-26T12:08:03.387Z,57.58
2023-04-26T12:10:36.256Z,54.16
2023-04-26T12:13:04.192Z,50.85
2023-04-26T12:15:35.070Z,55.05
2023-04-26T12:18:11.600Z,53.69
2023-04-26T12:20:42.564Z,50.91
2023-04-26T12:23:13.273Z,52.07
2023-04-26T12:25:42.423Z,50.51
2023-04-26T12:28:14.013Z,49.71
2023-04-26T12:30:41.993Z,50.87
2023-04-26T12:33:16.996Z,50.12
2023-04-26T12:35:46.979Z,51.43
2023-04-26T12:38:16.040Z,49.72
2023-04-26T12:40:46.846Z,51.70
2023-04-26T12:43:16.109Z,54.21
2023-04-26T12:45:43.572Z,52.78
2023-04-26T12:50:39.577Z,51.12
2023-04-26T12:53:06.952Z,55.51
2023-04-26T12:55:34.381Z,52.66
2023-04-26T12:58:02.222Z,57.97
2023-04-26T13:00:29.852Z,61.15
2023-04-26T13:02:57.494Z,61.01
2023-04-26T13:05:25.710Z,61.94
2023-04-26T13:07:53.267Z,63.81
2023-04-26T13:10:20.947Z,64.24
2023-04-26T13:12:48.795Z,61.23
2023-04-26T13:15:17.796Z,58.50
2023-04-26T13:17:45.914Z,56.37
2023-04-26T13:20:14.076Z,56.73
2023-04-26T13:22:43.495Z,54.83
2023-04-26T13:25:13.298Z,56.73
2023-04-26T13:27:41.362Z,56.16
2023-04-26T13:30:09.512Z,55.00
2023-04-26T13:32:37.006Z,54.28
2023-04-26T13:35:05.135Z,56.96
2023-04-26T13:37:32.831Z,59.96
2023-04-26T13:40:00.569Z,59.00
2023-04-26T13:42:28.338Z,58.46
2023-04-26T13:44:55.956Z,58.44
2023-04-26T13:47:23.408Z,60.88
2023-04-26T13:49:51.366Z,56.52
2023-04-26T13:52:18.822Z,58.95
2023-04-26T13:54:46.136Z,59.21
2023-04-26T13:57:13.933Z,59.53
2023-04-26T13:59:41.438Z,59.00
2023-04-26T14:02:09.437Z,60.41
2023-04-26T14:04:37.545Z,56.75
2023-04-26T14:07:05.799Z,55.83
2023-04-26T14:09:33.589Z,55.19
2023-04-26T14:14:34.790Z,56.28
2023-04-26T14:17:02.506Z,56.09
2023-04-26T14:19:29.890Z,54.67
2023-04-26T14:21:57.368Z,55.76
2023-04-26T14:24:25.271Z,56.28
2023-04-26T14:26:52.630Z,54.48
2023-04-26T14:29:20.150Z,55.70
2023-04-26T14:31:47.968Z,55.40
2023-04-26T14:34:15.536Z,55.46
2023-04-26T14:36:43.200Z,58.07
2023-04-26T14:39:11.070Z,56.00
2023-04-26T14:41:38.489Z,56.65
2023-04-26T14:44:06.099Z,57.51
2023-04-26T14:46:34.068Z,58.13
2023-04-26T14:49:01.438Z,57.25
2023-04-26T14:51:28.954Z,57.71
2023-04-26T14:53:56.778Z,56.86
2023-04-26T14:56:24.158Z,57.42
2023-04-26T14:58:51.537Z,58.17
2023-04-26T15:01:19.373Z,59.53
2023-04-26T15:03:47.035Z,58.96
2023-04-26T15:06:14.705Z,59.02
2023-04-26T15:08:42.497Z,60.09
2023-04-26T15:11:09.933Z,60.02
2023-04-26T15:13:37.476Z,59.76
2023-04-26T15:16:07.965Z,60.89
2023-04-26T15:18:35.694Z,60.97
2023-04-26T15:21:03.118Z,61.58
2023-04-26T15:23:31.324Z,61.19
2023-04-26T15:26:03.278Z,62.23
2023-04-26T15:28:31.308Z,62.40
2023-04-26T15:31:07.981Z,62.55
2023-04-26T15:33:37.800Z,61.42
2023-04-26T15:36:05.568Z,62.06
2023-04-26T15:38:36.444Z,63.59
2023-04-26T15:41:04.593Z,64.49
2023-04-26T15:43:32.228Z,63.87
2023-04-26T15:45:59.632Z,63.97
2023-04-26T15:48:27.514Z,64.00
2023-04-26T15:50:57.022Z,64.80
2023-04-26T15:53:24.799Z,64.41
2023-04-26T15:55:52.945Z,64.77
2023-04-26T15:58:20.311Z,65.21
2023-04-26T16:00:47.845Z,65.56
2023-04-26T16:03:16.038Z,64.64
2023-04-26T16:05:43.666Z,65.63
2023-04-26T16:08:11.059Z,66.35
2023-04-26T16:10:39.201Z,65.94
2023-04-26T16:13:06.569Z,66.07
2023-04-26T16:15:33.896Z,66.46
2023-04-26T16:18:01.867Z,67.70
2023-04-26T16:20:29.267Z,66.41
2023-04-26T16:22:56.705Z,67.29
2023-04-26T16:25:24.518Z,66.71
2023-04-26T16:27:51.905Z,67.58
2023-04-26T16:30:19.350Z,67.70
2023-04-26T16:32:47.430Z,67.47
2023-04-26T16:35:15.297Z,67.58
2023-04-26T16:37:44.547Z,68.22
2023-04-26T16:40:13.653Z,68.96
2023-04-26T16:42:43.545Z,67.55
2023-04-26T16:45:15.438Z,69.06
2023-04-26T16:47:44.317Z,70.06
2023-04-26T16:50:11.942Z,70.66
2023-04-26T16:52:39.322Z,69.76
2023-04-26T16:55:08.812Z,70.33
2023-04-26T16:57:36.150Z,70.06
2023-04-26T17:00:07.647Z,70.34
2023-04-26T17:02:36.424Z,72.09
2023-04-26T17:05:04.082Z,71.27
2023-04-26T17:07:31.605Z,72.43
2023-04-26T17:09:59.378Z,71.65
2023-04-26T17:12:26.916Z,72.34
2023-04-26T17:14:54.549Z,72.49
2023-04-26T17:17:22.279Z,72.07
2023-04-26T17:19:49.741Z,72.92
2023-04-26T17:22:17.239Z,71.76
2023-04-26T17:24:45.000Z,71.93
2023-04-26T17:27:12.368Z,72.22
2023-04-26T17:29:40.073Z,72.44
2023-04-26T17:32:07.816Z,72.28
2023-04-26T17:34:35.795Z,72.01
2023-04-26T17:37:03.870Z,71.71
2023-04-26T17:39:32.404Z,72.24
2023-04-26T17:41:59.792Z,72.73
2023-04-26T17:44:27.611Z,72.48
2023-04-26T17:46:55.591Z,72.81
2023-04-26T17:49:28.148Z,71.71
2023-04-26T17:51:58.331Z,72.24
2023-04-26T17:54:28.797Z,72.87
2023-04-26T17:56:57.176Z,71.61
2023-04-26T17:59:25.438Z,72.50
2023-04-26T18:01:53.453Z,72.88
2023-04-26T18:04:22.228Z,73.33
2023-04-26T18:06:50.223Z,72.64
2023-04-26T18:09:18.491Z,72.62
2023-04-26T18:11:48.175Z,72.62
2023-04-26T18:14:15.984Z,73.15
2023-04-26T18:16:43.731Z,72.77
2023-04-26T18:19:11.553Z,73.60
2023-04-26T18:21:39.436Z,74.70
2023-04-26T18:24:07.313Z,73.25
2023-04-26T18:26:35.346Z,73.85
2023-04-26T18:29:03.951Z,74.02
2023-04-26T18:31:33.774Z,73.14
2023-04-26T18:34:03.705Z,72.40
2023-04-26T18:36:32.353Z,74.13
2023-04-26T18:39:01.180Z,72.95
2023-04-26T18:41:29.150Z,73.56
2023-04-26T18:43:56.663Z,74.82
2023-04-26T18:46:24.170Z,73.34
2023-04-26T18:48:52.079Z,73.53
2023-04-26T18:51:20.004Z,74.33
2023-04-26T18:53:47.472Z,72.94
2023-04-26T18:56:15.283Z,73.32
2023-04-26T18:58:42.653Z,74.09
2023-04-26T19:01:10.067Z,73.77
2023-04-26T19:03:37.930Z,73.35
2023-04-26T19:06:10.545Z,73.31
2023-04-26T19:08:38.340Z,72.13
2023-04-26T19:11:09.090Z,72.92
2023-04-26T19:13:36.614Z,72.21
2023-04-26T19:16:04.854Z,72.36
2023-04-26T19:18:32.330Z,72.16
2023-04-26T19:21:10.264Z,72.36
2023-04-26T19:23:38.352Z,72.41
2023-04-26T19:26:12.287Z,73.37
2023-04-26T19:28:41.086Z,72.43
2023-04-26T19:31:08.564Z,72.80
2023-04-26T19:33:37.221Z,72.44
2023-04-26T19:36:05.106Z,73.34
2023-04-26T19:38:32.694Z,73.29
2023-04-26T19:41:01.509Z,74.04
2023-04-26T19:43:29.498Z,71.50
2023-04-26T19:45:57.110Z,72.36
2023-04-26T19:48:24.753Z,73.26
2023-04-26T19:50:52.526Z,72.49
2023-04-26T19:53:20.047Z,73.39
2023-04-26T19:55:47.484Z,72.71
2023-04-26T19:58:15.273Z,72.85
2023-04-26T20:00:43.934Z,71.68
2023-04-26T20:03:11.898Z,71.64
2023-04-26T20:05:39.565Z,71.91
2023-04-26T20:08:06.886Z,71.64
2023-04-26T20:10:34.725Z,71.03
2023-04-26T20:13:02.981Z,70.72
2023-04-26T20:15:32.948Z,70.17
2023-04-26T20:18:02.568Z,71.38
2023-04-26T20:20:30.037Z,71.50
2023-04-26T20:22:57.422Z,71.62
2023-04-26T20:25:25.327Z,73.67
2023-04-26T20:27:52.955Z,72.99
2023-04-26T20:30:20.604Z,73.08
2023-04-26T20:32:48.912Z,73.13
2023-04-26T20:35:17.282Z,73.75
2023-04-26T20:37:44.676Z,71.92
2023-04-26T20:40:12.524Z,73.86
2023-04-26T20:42:40.019Z,72.38
2023-04-26T20:45:08.076Z,73.50
2023-04-26T20:47:37.234Z,73.67
2023-04-26T20:50:05.560Z,73.34
2023-04-26T20:52:32.983Z,73.27
2023-04-26T20:55:00.861Z,74.03
2023-04-26T20:57:28.403Z,72.76
2023-04-26T20:59:55.996Z,73.31
2023-04-26T21:02:23.985Z,74.90
2023-04-26T21:04:51.700Z,74.02
2023-04-26T21:07:19.280Z,74.20
2023-04-26T21:09:47.065Z,75.98
2023-04-26T21:12:14.319Z,75.66
2023-04-26T21:14:41.847Z,75.18
2023-04-26T21:17:09.641Z,77.97
2023-04-26T21:19:37.031Z,76.57
2023-04-26T21:22:04.534Z,76.55
2023-04-26T21:24:32.499Z,75.18
2023-04-26T21:26:59.871Z,78.39
2023-04-26T21:29:27.155Z,77.88
2023-04-26T21:31:54.918Z,78.88
2023-04-26T21:34:22.445Z,76.38
2023-04-26T21:36:50.755Z,77.05
2023-04-26T21:39:18.567Z,78.13
2023-04-26T21:41:46.035Z,77.83
2023-04-26T21:44:13.461Z,75.14
2023-04-26T21:46:41.341Z,75.61
2023-04-26T21:49:08.848Z,75.72
2023-04-26T21:51:36.450Z,77.03
2023-04-26T21:54:04.188Z,76.28
2023-04-26T21:56:31.453Z,76.12
2023-04-26T21:58:59.051Z,75.53
2023-04-26T22:01:27.066Z,75.66
2023-04-26T22:03:55.131Z,75.83
2023-04-26T22:06:22.637Z,74.61
2023-04-26T22:08:50.100Z,75.49
2023-04-26T22:11:17.736Z,73.97
2023-04-26T22:13:45.116Z,74.45
2023-04-26T22:16:12.377Z,74.06
2023-04-26T22:18:40.158Z,74.22
2023-04-26T22:21:07.489Z,72.20
2023-04-26T22:23:34.906Z,74.03
2023-04-26T22:26:02.724Z,71.90
2023-04-26T22:28:30.127Z,72.11
2023-04-26T22:30:57.484Z,72.92
2023-04-26T22:33:25.125Z,72.96
2023-04-26T22:35:57.748Z,71.02
2023-04-26T22:38:25.690Z,71.74
2023-04-26T22:40:54.594Z,70.83
2023-04-26T22:43:24.007Z,70.03
2023-04-26T22:45:51.937Z,70.10
2023-04-26T22:48:19.347Z,71.65
2023-04-26T22:50:50.085Z,69.95
2023-04-26T22:53:18.000Z,68.37
2023-04-26T22:55:45.571Z,71.04
2023-04-26T22:58:12.978Z,70.38
2023-04-26T23:00:40.660Z,68.59
2023-04-26T23:03:08.009Z,69.15
2023-04-26T23:05:35.545Z,70.12
2023-04-26T23:08:03.321Z,69.51
2023-04-26T23:10:31.025Z,67.39
2023-04-26T23:12:58.662Z,68.06
2023-04-26T23:15:27.240Z,66.54
2023-04-26T23:17:54.634Z,66.04
2023-04-26T23:20:22.950Z,67.29
2023-04-26T23:22:50.959Z,67.32
2023-04-26T23:25:20.108Z,66.68
2023-04-26T23:27:47.583Z,66.67
2023-04-26T23:30:15.731Z,66.96
2023-04-26T23:32:43.076Z,64.93
2023-04-26T23:35:10.719Z,66.80
2023-04-26T23:37:38.557Z,64.81
2023-04-26T23:40:06.939Z,64.17
2023-04-26T23:42:34.346Z,65.93
2023-04-26T23:45:02.160Z,65.77
2023-04-26T23:47:31.145Z,66.50
2023-04-26T23:49:58.604Z,64.80
2023-04-26T23:52:26.230Z,64.50
2023-04-26T23:54:53.726Z,65.28
2023-04-26T23:57:21.673Z,64.75
2023-04-26T23:59:49.434Z,63.88
